To NAV CANADA Home Page Login to a new session Search on AWWS site Feedback and Comments Disclaimer Vers la page française équivalente Tips FAQ What's new on the site To the Forecasts and Observations / NOTAM section To "File a Flight Plan" website Publications and other links Update of the User's profile FIC Telephone Numbers My Weather Data Folder Route Weather Data Regional Weather Data Local Weather Data To the Forecasts and Observations / NOTAM section
Request Generated 06/26/2017 at 03:40:13 UTC . Weather information available at that time is displayed.


Save this request

METAR/TAF

KAMLOOPS/BC    

METAR CYKA 260300Z 09007KT 40SM SCT190 BKN300 32/09 A2975 RMK AC3CI4
SLP069 DENSITY ALT 3500FT=
METAR CYKA 260200Z 10006KT 40SM SCT190 OVC300 33/08 A2976 RMK AC4CI4
SLP072 DENSITY ALT 3700FT=
METAR CYKA 260100Z 11009KT 40SM SCT190 BKN300 34/06 A2978 RMK AC3CI4
SLP079 DENSITY ALT 3800FT=

TAF CYKA 260038Z 2601/2613 10010KT P6SM BKN240
RMK NXT FCST BY 260700Z=

CLINTON BC/AUTO OBS    

CWCL - METAR not available

CWCL - No TAF is issued for this station

LYTTON BC/OBS    (show WxCam)

METAR CWLY 260300Z AUTO VRB02KT 9SM BKN190 BKN210 OVC240 32/05 A2976
RMK SLP074 DENSITY ALT 3000FT=
METAR CWLY 260200Z AUTO VRB02KT 9SM FEW220 36/04 A2974 RMK SLP070
DENSITY ALT 3400FT=
METAR CWLY 260100Z AUTO 18008G15KT 160V250 9SM CLR 36/04 A2974 RMK
SLP070 DENSITY ALT 3500FT=

CWLY - No TAF is issued for this station

CLINTON/BLEIBLER RANCH/BC    (show WxCam)

METAR CYIN 260300Z AUTO 21006KT 9SM SCT190 25/01 A2991 RMK SLP099
DENSITY ALT 5700FT=
METAR CYIN 260200Z AUTO 21006KT 180V250 9SM FEW220 26/01 A2991 RMK
SLP107 DENSITY ALT 5800FT=
METAR CYIN 260100Z AUTO 20012G19KT 9SM CLR 27/00 A2992 RMK SLP110
DENSITY ALT 5900FT=

CYIN - No TAF is issued for this station



Your time UTC time
Weather data provided by Environment Canada and NAV CANADA